createdAt,value
2018-08-22T00:00:56.563Z,97101
2018-08-22T00:02:12.474Z,97101
2018-08-22T00:03:28.428Z,97099
2018-08-22T00:04:44.322Z,97100
2018-08-22T00:06:00.407Z,97096
2018-08-22T00:07:16.280Z,97096
2018-08-22T00:08:32.214Z,97093
2018-08-22T00:09:48.146Z,97097
2018-08-22T00:11:04.053Z,97095
2018-08-22T00:12:19.951Z,97099
2018-08-22T00:13:35.867Z,97097
2018-08-22T00:14:51.766Z,97098
2018-08-22T00:16:07.692Z,97101
2018-08-22T00:17:23.572Z,97100
2018-08-22T00:18:39.610Z,97098
2018-08-22T00:19:55.485Z,97100
2018-08-22T00:21:11.369Z,97093
2018-08-22T00:22:27.323Z,97095
2018-08-22T00:23:43.258Z,97097
2018-08-22T00:24:59.145Z,97097
2018-08-22T00:26:15.093Z,97094
2018-08-22T00:27:31.001Z,97094
2018-08-22T00:28:46.913Z,97089
2018-08-22T00:30:02.835Z,97093
2018-08-22T00:31:18.710Z,97093
2018-08-22T00:32:34.593Z,97090
2018-08-22T00:33:50.503Z,97090
2018-08-22T00:35:06.384Z,97090
2018-08-22T00:36:22.329Z,97091
2018-08-22T00:37:38.230Z,97093
2018-08-22T00:38:54.156Z,97090
2018-08-22T00:40:10.249Z,97089
2018-08-22T00:41:26.184Z,97087
2018-08-22T00:42:42.178Z,97088
2018-08-22T00:43:58.093Z,97087
2018-08-22T00:45:14.062Z,97082
2018-08-22T00:46:29.993Z,97088
2018-08-22T00:47:45.878Z,97089
2018-08-22T00:49:01.774Z,97089
2018-08-22T00:50:17.718Z,97087
2018-08-22T00:51:33.637Z,97084
2018-08-22T00:52:49.681Z,97086
2018-08-22T00:54:05.606Z,97085
2018-08-22T00:55:21.584Z,97084
2018-08-22T00:56:37.523Z,97081
2018-08-22T00:57:53.495Z,97077
2018-08-22T00:59:09.442Z,97076
2018-08-22T01:00:25.366Z,97076
2018-08-22T01:01:41.312Z,97070
2018-08-22T01:02:57.211Z,97069
2018-08-22T01:04:13.117Z,97069
2018-08-22T01:05:28.985Z,97070
2018-08-22T01:06:44.903Z,97066
2018-08-22T01:08:00.842Z,97067
2018-08-22T01:09:16.741Z,97069
2018-08-22T01:10:32.662Z,97069
2018-08-22T01:11:48.568Z,97066
2018-08-22T01:13:04.512Z,97069
2018-08-22T01:14:20.452Z,97065
2018-08-22T01:15:36.354Z,97065
2018-08-22T01:16:52.295Z,97067
2018-08-22T01:18:08.362Z,97068
2018-08-22T01:19:24.348Z,97062
2018-08-22T01:20:40.259Z,97064
2018-08-22T01:21:56.134Z,97063
2018-08-22T01:23:12.145Z,97062
2018-08-22T01:24:28.053Z,97058
2018-08-22T01:25:44.014Z,97061
2018-08-22T01:27:00.015Z,97063
2018-08-22T01:28:15.936Z,97063
2018-08-22T01:29:31.881Z,97064
2018-08-22T01:30:47.756Z,97064
2018-08-22T01:32:03.673Z,97064
2018-08-22T01:33:19.579Z,97064
2018-08-22T01:34:35.543Z,97065
2018-08-22T01:35:51.570Z,97064
2018-08-22T01:37:07.490Z,97065
2018-08-22T01:38:23.494Z,97069
2018-08-22T01:39:39.553Z,97072
2018-08-22T01:40:55.465Z,97071
2018-08-22T01:42:11.372Z,97072
2018-08-22T01:43:27.325Z,97067
2018-08-22T01:44:43.255Z,97070
2018-08-22T01:45:59.161Z,97066
2018-08-22T01:47:15.062Z,97065
2018-08-22T01:48:30.991Z,97067
2018-08-22T01:49:46.878Z,97066
2018-08-22T01:51:02.931Z,97064
2018-08-22T01:52:18.898Z,97064
2018-08-22T01:53:34.808Z,97066
2018-08-22T01:54:50.733Z,97066
2018-08-22T01:56:06.806Z,97066
2018-08-22T01:57:22.853Z,97065
2018-08-22T01:58:38.871Z,97064
2018-08-22T01:59:54.758Z,97064
2018-08-22T02:01:10.761Z,97066
2018-08-22T02:02:26.633Z,97064
2018-08-22T02:03:42.506Z,97065
2018-08-22T02:04:58.378Z,97065
2018-08-22T02:06:14.302Z,97062
2018-08-22T02:07:30.237Z,97062
2018-08-22T02:08:46.148Z,97066
2018-08-22T02:10:02.021Z,97063
2018-08-22T02:11:17.952Z,97063
2018-08-22T02:12:33.886Z,97063
2018-08-22T02:13:49.869Z,97061
2018-08-22T02:15:05.758Z,97058
2018-08-22T02:16:21.743Z,97058
2018-08-22T02:17:37.634Z,97060
2018-08-22T02:18:53.534Z,97059
2018-08-22T02:20:09.541Z,97064
2018-08-22T02:21:25.466Z,97058
2018-08-22T02:22:41.485Z,97057
2018-08-22T02:23:57.380Z,97062
2018-08-22T02:25:13.469Z,97058
2018-08-22T02:26:29.267Z,97058
2018-08-22T02:27:45.147Z,97057
2018-08-22T02:29:01.190Z,97061
2018-08-22T02:30:17.096Z,97059
2018-08-22T02:31:33.011Z,97062
2018-08-22T02:32:48.942Z,97060
2018-08-22T02:34:04.964Z,97060
2018-08-22T02:35:20.864Z,97060
2018-08-22T02:36:36.772Z,97056
2018-08-22T02:37:52.672Z,97055
2018-08-22T02:39:08.565Z,97050
2018-08-22T02:40:24.595Z,97055
2018-08-22T02:41:40.521Z,97054
2018-08-22T02:42:56.384Z,97054
2018-08-22T02:44:12.351Z,97056
2018-08-22T02:45:28.284Z,97059
2018-08-22T02:46:44.216Z,97060
2018-08-22T02:48:00.122Z,97061
2018-08-22T02:49:16.006Z,97058
2018-08-22T02:50:31.923Z,97061
2018-08-22T02:51:47.802Z,97057
2018-08-22T02:53:03.700Z,97058
2018-08-22T02:54:19.610Z,97056
2018-08-22T02:55:35.648Z,97058
2018-08-22T02:56:51.585Z,97056
2018-08-22T02:58:07.464Z,97060
2018-08-22T02:59:23.383Z,97060
2018-08-22T03:00:39.368Z,97062
2018-08-22T03:01:55.349Z,97061
2018-08-22T03:03:11.279Z,97062
2018-08-22T03:04:27.218Z,97059
2018-08-22T03:05:43.210Z,97061
2018-08-22T03:06:59.172Z,97065
2018-08-22T03:08:15.099Z,97060
2018-08-22T03:09:31.135Z,97061
2018-08-22T03:10:47.135Z,97064
2018-08-22T03:12:03.068Z,97060
2018-08-22T03:13:19.038Z,97063
2018-08-22T03:14:35.049Z,97058
2018-08-22T03:15:50.964Z,97060
2018-08-22T03:17:06.857Z,97061
2018-08-22T03:18:22.814Z,97062
2018-08-22T03:19:38.820Z,97061
2018-08-22T03:20:54.863Z,97065
2018-08-22T03:22:10.770Z,97069
2018-08-22T03:23:26.881Z,97065
2018-08-22T03:24:42.890Z,97068
2018-08-22T03:25:58.900Z,97068
2018-08-22T03:27:14.799Z,97069
2018-08-22T03:28:30.709Z,97073
2018-08-22T03:29:46.591Z,97071
2018-08-22T03:31:02.527Z,97076
2018-08-22T03:32:18.547Z,97076
2018-08-22T03:33:34.579Z,97078
2018-08-22T03:34:50.731Z,97071
2018-08-22T03:36:06.701Z,97072
2018-08-22T03:37:22.584Z,97072
2018-08-22T03:38:38.539Z,97070
2018-08-22T03:39:54.448Z,97071
2018-08-22T03:41:10.323Z,97071
2018-08-22T03:42:26.194Z,97072
2018-08-22T03:43:42.135Z,97080
2018-08-22T03:44:58.042Z,97084
2018-08-22T03:46:13.954Z,97079
2018-08-22T03:47:29.933Z,97079
2018-08-22T03:48:45.862Z,97081
2018-08-22T03:50:01.782Z,97080
2018-08-22T03:51:17.725Z,97079
2018-08-22T03:52:34.383Z,97082
2018-08-22T03:53:50.360Z,97077
2018-08-22T03:55:06.364Z,97081
2018-08-22T03:56:22.288Z,97079
2018-08-22T03:57:38.300Z,97075
2018-08-22T03:58:54.205Z,97079
2018-08-22T04:00:10.190Z,97080
2018-08-22T04:01:26.234Z,97083
2018-08-22T04:02:42.161Z,97084
2018-08-22T04:03:58.100Z,97085
2018-08-22T04:05:14.083Z,97087
2018-08-22T04:06:30.063Z,97084
2018-08-22T04:07:45.974Z,97089
2018-08-22T04:09:01.925Z,97086
2018-08-22T04:10:17.844Z,97087
2018-08-22T04:11:33.809Z,97086
2018-08-22T04:12:49.771Z,97085
2018-08-22T04:14:05.680Z,97088
2018-08-22T04:15:21.653Z,97092
2018-08-22T04:16:37.587Z,97095
2018-08-22T04:17:53.503Z,97095
2018-08-22T04:19:09.482Z,97095
2018-08-22T04:20:25.462Z,97093
2018-08-22T04:21:41.353Z,97096
2018-08-22T04:22:57.416Z,97095
2018-08-22T04:24:13.499Z,97094
2018-08-22T04:25:29.415Z,97097
2018-08-22T04:26:45.334Z,97098
2018-08-22T04:28:01.242Z,97099
2018-08-22T04:29:17.190Z,97100
2018-08-22T04:30:33.070Z,97100
2018-08-22T04:31:48.976Z,97102
2018-08-22T04:33:04.944Z,97103
2018-08-22T04:34:20.996Z,97104
2018-08-22T04:35:36.930Z,97102
2018-08-22T04:36:52.963Z,97107
2018-08-22T04:38:08.980Z,97105
2018-08-22T04:39:24.924Z,97109
2018-08-22T04:40:40.841Z,97110
2018-08-22T04:41:57.923Z,97112
2018-08-22T04:43:13.846Z,97109
2018-08-22T04:44:29.841Z,97114
2018-08-22T04:45:45.761Z,97119
2018-08-22T04:47:01.675Z,97116
2018-08-22T04:48:17.777Z,97118
2018-08-22T04:49:33.702Z,97118
2018-08-22T04:50:49.657Z,97117
2018-08-22T04:52:05.572Z,97121
2018-08-22T04:53:21.521Z,97117
2018-08-22T04:54:37.537Z,97121
2018-08-22T04:55:53.557Z,97122
2018-08-22T04:57:09.560Z,97125
2018-08-22T04:58:25.683Z,97126
2018-08-22T04:59:41.625Z,97124
2018-08-22T05:00:57.600Z,97129
2018-08-22T05:02:13.511Z,97127
2018-08-22T05:03:29.441Z,97131
2018-08-22T05:04:45.366Z,97132
2018-08-22T05:06:01.394Z,97132
2018-08-22T05:07:17.255Z,97134
2018-08-22T05:08:33.257Z,97130
2018-08-22T05:09:49.269Z,97133
2018-08-22T05:11:05.177Z,97134
2018-08-22T05:12:21.103Z,97136
2018-08-22T05:13:37.146Z,97136
2018-08-22T05:14:53.062Z,97133
2018-08-22T05:16:09.005Z,97136
2018-08-22T05:17:24.995Z,97135
2018-08-22T05:18:41.054Z,97132
2018-08-22T05:19:57.223Z,97134
2018-08-22T05:21:13.287Z,97134
2018-08-22T05:22:29.190Z,97134
2018-08-22T05:23:45.163Z,97129
2018-08-22T05:25:01.054Z,97128
2018-08-22T05:26:16.973Z,97127
2018-08-22T05:27:32.925Z,97131
2018-08-22T05:28:48.943Z,97128
2018-08-22T05:30:05.029Z,97129
2018-08-22T05:31:20.940Z,97134
2018-08-22T05:32:36.859Z,97136
2018-08-22T05:33:52.804Z,97134
2018-08-22T05:35:08.703Z,97136
2018-08-22T05:36:24.626Z,97137
2018-08-22T05:37:40.543Z,97136
2018-08-22T05:38:56.458Z,97132
2018-08-22T05:40:12.371Z,97139
2018-08-22T05:41:28.377Z,97139
2018-08-22T05:42:44.411Z,97140
2018-08-22T05:44:00.371Z,97140
2018-08-22T05:45:16.339Z,97139
2018-08-22T05:46:32.244Z,97144
2018-08-22T05:47:48.209Z,97141
2018-08-22T05:49:04.169Z,97154
2018-08-22T05:50:20.082Z,97149
2018-08-22T05:51:36.002Z,97149
2018-08-22T05:52:51.962Z,97152
2018-08-22T05:54:07.985Z,97153
2018-08-22T05:55:23.905Z,97154
2018-08-22T05:56:39.812Z,97154
2018-08-22T05:57:55.813Z,97161
2018-08-22T05:59:11.843Z,97159
2018-08-22T06:00:27.890Z,97157
2018-08-22T06:01:43.875Z,97158
2018-08-22T06:02:59.787Z,97155
2018-08-22T06:04:15.788Z,97153
2018-08-22T06:05:31.706Z,97154
2018-08-22T06:06:47.615Z,97154
2018-08-22T06:08:03.535Z,97154
2018-08-22T06:09:19.521Z,97152
2018-08-22T06:10:35.388Z,97155
2018-08-22T06:11:51.315Z,97155
2018-08-22T06:13:07.203Z,97153
2018-08-22T06:14:23.229Z,97154
2018-08-22T06:15:39.133Z,97161
2018-08-22T06:16:55.011Z,97156
2018-08-22T06:18:11.063Z,97155
2018-08-22T06:19:27.007Z,97154
2018-08-22T06:20:42.945Z,97156
2018-08-22T06:21:58.830Z,97152
2018-08-22T06:23:14.785Z,97156
2018-08-22T06:24:30.699Z,97155
2018-08-22T06:25:46.753Z,97154
2018-08-22T06:31:40.512Z,97158
2018-08-22T06:32:56.467Z,97158
2018-08-22T06:34:12.345Z,97162
2018-08-22T06:35:28.325Z,97160
2018-08-22T06:36:44.263Z,97161
2018-08-22T06:38:00.216Z,97157
2018-08-22T06:39:16.120Z,97160
2018-08-22T06:40:32.081Z,97163
2018-08-22T06:41:47.968Z,97160
2018-08-22T06:43:04.106Z,97158
2018-08-22T06:44:20.090Z,97163
2018-08-22T06:45:36.094Z,97162
2018-08-22T06:46:52.030Z,97162
2018-08-22T06:48:07.998Z,97165
2018-08-22T06:49:23.884Z,97163
2018-08-22T06:50:40.182Z,97162
2018-08-22T06:51:56.074Z,97167
2018-08-22T06:53:11.976Z,97160
2018-08-22T06:54:27.888Z,97165
2018-08-22T06:55:43.878Z,97157
2018-08-22T06:56:59.864Z,97164
2018-08-22T06:58:15.864Z,97161
2018-08-22T06:59:31.837Z,97160
2018-08-22T07:00:47.797Z,97159
2018-08-22T07:02:03.774Z,97163
2018-08-22T07:03:19.662Z,97165
2018-08-22T07:04:35.556Z,97164
2018-08-22T07:05:51.513Z,97160
2018-08-22T07:07:07.496Z,97165
2018-08-22T07:08:23.521Z,97158
2018-08-22T07:09:39.518Z,97159
2018-08-22T07:10:55.512Z,97158
2018-08-22T07:12:11.449Z,97156
2018-08-22T07:13:27.421Z,97157
2018-08-22T07:14:43.343Z,97155
2018-08-22T07:15:59.282Z,97159
2018-08-22T07:17:15.397Z,97150
2018-08-22T07:18:31.440Z,97148
2018-08-22T07:19:47.396Z,97159
2018-08-22T07:21:03.406Z,97153
2018-08-22T07:22:19.487Z,97156
2018-08-22T07:23:35.431Z,97156
2018-08-22T07:24:51.360Z,97160
2018-08-22T07:26:07.300Z,97161
2018-08-22T07:27:23.232Z,97165
2018-08-22T07:28:39.167Z,97163
2018-08-22T07:29:55.223Z,97166
2018-08-22T07:31:11.235Z,97166
2018-08-22T07:32:27.250Z,97166
2018-08-22T07:33:43.268Z,97164
2018-08-22T07:34:59.280Z,97167
2018-08-22T07:36:15.248Z,97165
2018-08-22T07:37:31.305Z,97164
2018-08-22T07:38:47.451Z,97169
2018-08-22T07:40:03.462Z,97167
2018-08-22T07:41:19.421Z,97166
2018-08-22T07:42:35.420Z,97164
2018-08-22T07:43:51.583Z,97166
2018-08-22T07:45:07.765Z,97172
2018-08-22T07:46:23.794Z,97172
2018-08-22T07:47:39.687Z,97171
2018-08-22T07:48:55.645Z,97169
2018-08-22T07:50:11.729Z,97175
2018-08-22T07:51:27.618Z,97171
2018-08-22T07:52:43.896Z,97170
2018-08-22T07:53:59.833Z,97169
2018-08-22T07:55:15.849Z,97174
2018-08-22T07:56:31.853Z,97176
2018-08-22T07:57:47.799Z,97172
2018-08-22T07:59:03.738Z,97175
2018-08-22T08:00:19.714Z,97178
2018-08-22T08:01:35.648Z,97178
2018-08-22T08:02:51.564Z,97172
2018-08-22T08:04:07.476Z,97179
2018-08-22T08:05:23.465Z,97175
2018-08-22T08:06:39.511Z,97180
2018-08-22T08:07:55.466Z,97182
2018-08-22T08:09:11.458Z,97177
2018-08-22T08:10:27.417Z,97179
2018-08-22T08:11:43.335Z,97178
2018-08-22T08:12:59.594Z,97176
2018-08-22T08:14:15.501Z,97178
2018-08-22T08:15:31.491Z,97181
2018-08-22T08:16:47.484Z,97178
2018-08-22T08:18:03.455Z,97181
2018-08-22T08:19:19.407Z,97182
2018-08-22T08:20:35.408Z,97182
2018-08-22T08:21:51.349Z,97179
2018-08-22T08:23:07.291Z,97178
2018-08-22T08:24:23.283Z,97176
2018-08-22T08:25:39.315Z,97177
2018-08-22T08:26:55.329Z,97178
2018-08-22T08:28:11.259Z,97174
2018-08-22T08:29:27.354Z,97175
2018-08-22T08:30:43.415Z,97177
2018-08-22T08:31:59.351Z,97176
2018-08-22T08:33:15.284Z,97174
2018-08-22T08:34:31.315Z,97174
2018-08-22T08:35:47.257Z,97173
2018-08-22T08:37:03.192Z,97175
2018-08-22T08:38:19.125Z,97177
2018-08-22T08:39:35.060Z,97175
2018-08-22T08:40:51.060Z,97170
2018-08-22T08:42:06.964Z,97174
2018-08-22T08:43:22.924Z,97173
2018-08-22T08:44:38.939Z,97172
2018-08-22T08:45:54.957Z,97169
2018-08-22T08:47:11.849Z,97166
2018-08-22T08:48:27.764Z,97163
2018-08-22T08:49:43.734Z,97169
2018-08-22T08:50:59.654Z,97163
2018-08-22T08:52:15.592Z,97166
2018-08-22T08:53:31.564Z,97165
2018-08-22T08:54:47.476Z,97162
2018-08-22T08:56:03.447Z,97167
2018-08-22T08:57:19.390Z,97172
2018-08-22T08:58:35.316Z,97167
2018-08-22T08:59:51.264Z,97164
2018-08-22T09:01:07.258Z,97162
2018-08-22T09:02:23.301Z,97157
2018-08-22T09:03:39.237Z,97158
2018-08-22T09:04:55.136Z,97165
2018-08-22T09:06:11.082Z,97159
2018-08-22T09:07:27.051Z,97163
2018-08-22T09:08:42.948Z,97159
2018-08-22T09:09:58.846Z,97161
2018-08-22T09:11:14.756Z,97164
2018-08-22T09:12:30.712Z,97163
2018-08-22T09:13:46.654Z,97157
2018-08-22T09:15:02.657Z,97157
2018-08-22T09:16:18.610Z,97158
2018-08-22T09:17:34.586Z,97157
2018-08-22T09:18:50.494Z,97160
2018-08-22T09:20:06.413Z,97157
2018-08-22T09:21:22.390Z,97157
2018-08-22T09:22:38.261Z,97157
2018-08-22T09:23:54.209Z,97157
2018-08-22T09:25:10.085Z,97155
2018-08-22T09:26:26.115Z,97159
2018-08-22T09:27:42.141Z,97160
2018-08-22T09:28:58.173Z,97157
2018-08-22T09:30:14.198Z,97155
2018-08-22T09:31:30.210Z,97159
2018-08-22T09:32:46.252Z,97155
2018-08-22T09:34:02.279Z,97151
2018-08-22T09:35:18.196Z,97155
2018-08-22T09:36:34.093Z,97149
2018-08-22T09:37:50.015Z,97145
2018-08-22T09:39:06.083Z,97147
2018-08-22T09:40:22.007Z,97146
2018-08-22T09:41:37.984Z,97152
2018-08-22T09:42:53.932Z,97146
2018-08-22T09:44:09.832Z,97148
2018-08-22T09:45:25.748Z,97146
2018-08-22T09:46:41.848Z,97147
2018-08-22T09:49:39.220Z,97136
2018-08-22T09:50:55.209Z,97136
2018-08-22T09:52:11.187Z,97137
2018-08-22T09:53:27.098Z,97133
2018-08-22T09:54:43.228Z,97133
2018-08-22T09:55:59.075Z,97132
2018-08-22T09:57:15.000Z,97129
2018-08-22T09:58:30.961Z,97126
2018-08-22T09:59:46.850Z,97129
2018-08-22T10:01:02.780Z,97129
2018-08-22T10:02:18.685Z,97129
2018-08-22T10:03:34.586Z,97128
2018-08-22T10:04:50.547Z,97130
2018-08-22T10:06:06.467Z,97131
2018-08-22T10:07:22.417Z,97127
2018-08-22T10:08:38.309Z,97127
2018-08-22T10:09:54.403Z,97121
2018-08-22T10:11:10.235Z,97118
2018-08-22T10:12:26.313Z,97122
2018-08-22T10:13:42.334Z,97122
2018-08-22T10:14:58.266Z,97116
2018-08-22T10:16:14.341Z,97117
2018-08-22T10:17:30.277Z,97121
2018-08-22T10:18:46.265Z,97129
2018-08-22T10:20:02.247Z,97125
2018-08-22T10:21:18.168Z,97117
2018-08-22T10:22:34.095Z,97115
2018-08-22T10:23:50.033Z,97118
2018-08-22T10:25:06.005Z,97118
2018-08-22T10:26:21.979Z,97111
2018-08-22T10:27:38.035Z,97113
2018-08-22T10:28:54.004Z,97115
2018-08-22T10:30:09.954Z,97118
2018-08-22T10:31:25.983Z,97116
2018-08-22T10:32:42.113Z,97116
2018-08-22T10:33:57.969Z,97115
2018-08-22T10:35:13.954Z,97111
2018-08-22T10:36:29.811Z,97110
2018-08-22T10:37:45.757Z,97107
2018-08-22T10:39:01.666Z,97109
2018-08-22T10:40:17.573Z,97109
2018-08-22T10:41:33.600Z,97109
2018-08-22T10:42:49.527Z,97108
2018-08-22T10:44:05.413Z,97102
2018-08-22T10:45:21.327Z,97102
2018-08-22T10:46:37.273Z,97100
2018-08-22T10:47:53.271Z,97100
2018-08-22T10:49:09.271Z,97097
2018-08-22T10:50:25.250Z,97101
2018-08-22T10:51:41.189Z,97096
2018-08-22T10:52:57.148Z,97094
2018-08-22T10:54:13.187Z,97095
2018-08-22T10:55:29.098Z,97099
2018-08-22T10:56:45.011Z,97092
2018-08-22T10:58:00.923Z,97091
2018-08-22T10:59:16.845Z,97092
2018-08-22T11:00:32.917Z,97089
2018-08-22T11:01:48.862Z,97093
2018-08-22T11:03:04.766Z,97091
2018-08-22T11:04:20.743Z,97089
2018-08-22T11:05:36.633Z,97088
2018-08-22T11:06:52.594Z,97086
2018-08-22T11:08:08.628Z,97079
2018-08-22T11:09:24.536Z,97081
2018-08-22T11:10:40.463Z,97085
2018-08-22T11:11:56.507Z,97088
2018-08-22T11:13:12.486Z,97080
2018-08-22T11:14:28.392Z,97080
2018-08-22T11:15:44.372Z,97078
2018-08-22T11:17:00.228Z,97080
2018-08-22T11:18:16.149Z,97072
2018-08-22T11:19:32.236Z,97078
2018-08-22T11:20:48.275Z,97070
2018-08-22T11:22:04.160Z,97070
2018-08-22T11:23:20.124Z,97072
2018-08-22T11:24:36.099Z,97070
2018-08-22T11:25:51.991Z,97072
2018-08-22T11:27:07.994Z,97070
2018-08-22T11:28:23.888Z,97074
2018-08-22T11:29:39.818Z,97072
2018-08-22T11:30:55.677Z,97074
2018-08-22T11:32:11.614Z,97069
2018-08-22T11:33:27.644Z,97067
2018-08-22T11:34:43.552Z,97068
2018-08-22T11:35:59.457Z,97068
2018-08-22T11:37:15.391Z,97067
2018-08-22T11:38:32.323Z,97067
2018-08-22T11:39:48.232Z,97061
2018-08-22T11:41:04.264Z,97060
2018-08-22T11:42:20.217Z,97063
2018-08-22T11:43:36.241Z,97057
2018-08-22T11:44:52.171Z,97055
2018-08-22T11:46:08.117Z,97056
2018-08-22T11:47:24.073Z,97057
2018-08-22T11:48:39.996Z,97053
2018-08-22T11:49:55.913Z,97057
2018-08-22T11:51:11.826Z,97051
2018-08-22T11:52:27.751Z,97047
2018-08-22T11:53:43.797Z,97046
2018-08-22T11:54:59.714Z,97045
2018-08-22T11:56:15.609Z,97043
2018-08-22T11:57:31.557Z,97040
2018-08-22T11:58:47.514Z,97038
2018-08-22T12:00:03.429Z,97037
2018-08-22T12:01:19.436Z,97036
2018-08-22T12:02:35.342Z,97036
2018-08-22T12:03:51.283Z,97038
2018-08-22T12:05:07.255Z,97039
2018-08-22T12:06:23.267Z,97038
2018-08-22T12:07:39.266Z,97038
2018-08-22T12:08:55.191Z,97039
2018-08-22T12:10:11.107Z,97038
2018-08-22T12:11:27.079Z,97038
2018-08-22T12:12:43.007Z,97033
2018-08-22T12:13:58.897Z,97035
2018-08-22T12:15:14.833Z,97031
2018-08-22T12:16:30.775Z,97030
2018-08-22T12:17:46.696Z,97031
2018-08-22T12:19:02.613Z,97030
2018-08-22T12:20:18.530Z,97024
2018-08-22T12:21:34.449Z,97025
2018-08-22T12:22:50.413Z,97022
2018-08-22T12:24:06.403Z,97022
2018-08-22T12:25:22.331Z,97022
2018-08-22T12:26:38.288Z,97018
2018-08-22T12:27:54.216Z,97017
2018-08-22T12:29:10.100Z,97015
2018-08-22T12:30:26.026Z,97012
2018-08-22T12:31:41.901Z,97013
2018-08-22T12:32:57.896Z,97010
2018-08-22T12:34:13.791Z,97007
2018-08-22T12:35:29.775Z,97004
2018-08-22T12:36:45.702Z,97007
2018-08-22T12:38:01.600Z,97004
2018-08-22T12:39:17.515Z,97006
2018-08-22T12:40:33.440Z,97002
2018-08-22T12:41:49.331Z,96998
2018-08-22T12:43:05.274Z,96999
2018-08-22T12:44:21.221Z,96999
2018-08-22T12:45:37.156Z,96999
2018-08-22T12:46:53.063Z,96999
2018-08-22T12:48:09.000Z,96999
2018-08-22T12:49:24.914Z,96996
2018-08-22T12:50:41.030Z,96997
2018-08-22T12:51:57.056Z,97001
2018-08-22T12:53:12.940Z,96999
2018-08-22T12:54:28.883Z,97001
2018-08-22T12:55:44.887Z,97001
2018-08-22T12:57:00.809Z,96997
2018-08-22T12:58:16.750Z,97001
2018-08-22T12:59:32.642Z,97001
2018-08-22T13:00:48.621Z,96997
2018-08-22T13:02:04.569Z,96994
2018-08-22T13:03:20.527Z,96996
2018-08-22T13:04:36.629Z,96994
2018-08-22T13:05:52.614Z,96989
2018-08-22T13:07:08.574Z,96992
2018-08-22T13:08:24.506Z,96995
2018-08-22T13:09:40.452Z,96988
2018-08-22T13:10:56.450Z,96992
2018-08-22T13:12:12.265Z,96983
2018-08-22T13:13:28.231Z,96986
2018-08-22T13:14:44.180Z,96985
2018-08-22T13:16:00.169Z,96985
2018-08-22T13:17:16.121Z,96982
2018-08-22T13:18:32.048Z,96977
2018-08-22T13:19:47.943Z,96976
2018-08-22T13:21:03.909Z,96973
2018-08-22T13:22:19.783Z,96971
2018-08-22T13:23:35.707Z,96973
2018-08-22T13:24:51.679Z,96969
2018-08-22T13:26:07.645Z,96971
2018-08-22T13:27:23.634Z,96968
2018-08-22T13:28:39.580Z,96967
2018-08-22T13:29:55.641Z,96963
2018-08-22T13:31:11.596Z,96963
2018-08-22T13:32:27.533Z,96961
2018-08-22T13:33:43.437Z,96959
2018-08-22T13:34:59.392Z,96958
2018-08-22T13:36:15.553Z,96956
2018-08-22T13:37:31.373Z,96954
2018-08-22T13:38:47.439Z,96950
2018-08-22T13:40:03.425Z,96945
2018-08-22T13:41:19.348Z,96945
2018-08-22T13:42:35.322Z,96943
2018-08-22T13:43:51.235Z,96942
2018-08-22T13:45:07.222Z,96940
2018-08-22T13:46:23.132Z,96941
2018-08-22T13:47:39.063Z,96936
2018-08-22T13:48:54.985Z,96931
2018-08-22T13:50:10.907Z,96931
2018-08-22T13:51:26.828Z,96928
2018-08-22T13:52:41.745Z,96925
2018-08-22T13:53:57.729Z,96924
2018-08-22T13:55:13.686Z,96922
2018-08-22T13:56:29.741Z,96920
2018-08-22T13:57:46.604Z,96925
2018-08-22T13:59:02.602Z,96930
2018-08-22T14:00:18.670Z,96924
2018-08-22T14:01:34.791Z,96922
2018-08-22T14:02:50.681Z,96923
2018-08-22T14:04:06.663Z,96926
2018-08-22T14:05:22.742Z,96923
2018-08-22T14:06:38.751Z,96918
2018-08-22T14:07:54.715Z,96917
2018-08-22T14:09:10.791Z,96918
2018-08-22T14:10:26.785Z,96916
2018-08-22T14:11:42.731Z,96914
2018-08-22T14:12:58.627Z,96915
2018-08-22T14:14:14.585Z,96915
2018-08-22T14:15:30.507Z,96913
2018-08-22T14:16:46.461Z,96909
2018-08-22T14:18:02.414Z,96906
2018-08-22T14:19:18.439Z,96908
2018-08-22T14:20:34.404Z,96909
2018-08-22T14:21:50.385Z,96907
2018-08-22T14:23:06.410Z,96904
2018-08-22T14:24:22.359Z,96906
2018-08-22T14:25:38.298Z,96904
2018-08-22T14:26:54.179Z,96903
2018-08-22T14:28:10.144Z,96901
2018-08-22T14:29:26.053Z,96895
2018-08-22T14:30:42.017Z,96898
2018-08-22T14:31:57.905Z,96892
2018-08-22T14:33:13.773Z,96896
2018-08-22T14:34:29.772Z,96892
2018-08-22T14:35:45.825Z,96890
2018-08-22T14:37:01.810Z,96889
2018-08-22T14:38:17.975Z,96886
2018-08-22T14:39:33.956Z,96885
2018-08-22T14:40:49.928Z,96882
2018-08-22T14:42:05.856Z,96881
2018-08-22T14:43:21.792Z,96879
2018-08-22T14:44:37.756Z,96875
2018-08-22T14:45:53.878Z,96875
2018-08-22T14:47:09.867Z,96872
2018-08-22T14:48:25.923Z,96874
2018-08-22T14:49:41.945Z,96873
2018-08-22T14:50:57.938Z,96867
2018-08-22T14:52:13.969Z,96868
2018-08-22T14:53:30.041Z,96860
2018-08-22T14:54:45.957Z,96864
2018-08-22T14:56:02.057Z,96863
2018-08-22T14:57:17.969Z,96867
2018-08-22T14:58:33.982Z,96867
2018-08-22T14:59:49.927Z,96859
2018-08-22T15:01:05.924Z,96862
2018-08-22T15:02:22.233Z,96864
2018-08-22T15:03:38.278Z,96864
2018-08-22T15:04:54.039Z,96864
2018-08-22T15:06:10.065Z,96858
2018-08-22T15:07:25.908Z,96860
2018-08-22T15:08:41.911Z,96860
2018-08-22T15:09:57.838Z,96865
2018-08-22T15:11:13.825Z,96862
2018-08-22T15:12:29.743Z,96859
2018-08-22T15:13:45.692Z,96860
2018-08-22T15:15:01.808Z,96858
2018-08-22T15:16:17.762Z,96859
2018-08-22T15:17:33.824Z,96854
2018-08-22T15:18:49.813Z,96850
2018-08-22T15:20:05.807Z,96849
2018-08-22T15:21:21.765Z,96850
2018-08-22T15:22:37.850Z,96845
2018-08-22T15:23:53.921Z,96846
2018-08-22T15:25:09.863Z,96847
2018-08-22T15:26:25.791Z,96844
2018-08-22T15:27:41.726Z,96846
2018-08-22T15:28:57.690Z,96840
2018-08-22T15:30:13.654Z,96843
2018-08-22T15:31:29.662Z,96844
2018-08-22T15:32:45.660Z,96847
2018-08-22T15:34:01.684Z,96842
2018-08-22T15:35:17.544Z,96841
2018-08-22T15:36:33.574Z,96846
2018-08-22T15:37:49.481Z,96841
2018-08-22T15:39:05.452Z,96835
2018-08-22T15:40:21.456Z,96838
2018-08-22T15:41:37.415Z,96842
2018-08-22T15:42:53.343Z,96839
2018-08-22T15:44:09.845Z,96837
2018-08-22T15:45:25.864Z,96834
2018-08-22T15:46:41.847Z,96835
2018-08-22T15:47:57.913Z,96839
2018-08-22T15:49:13.962Z,96839
2018-08-22T15:50:29.963Z,96836
2018-08-22T15:51:45.911Z,96834
2018-08-22T15:53:01.879Z,96835
2018-08-22T15:54:17.828Z,96834
2018-08-22T15:55:33.852Z,96833
2018-08-22T15:56:49.803Z,96840
2018-08-22T15:58:05.727Z,96835
2018-08-22T15:59:21.696Z,96834
2018-08-22T16:00:37.630Z,96830
2018-08-22T16:01:53.614Z,96827
2018-08-22T16:03:09.658Z,96835
2018-08-22T16:04:25.712Z,96830
2018-08-22T16:05:41.761Z,96831
2018-08-22T16:06:57.704Z,96827
2018-08-22T16:08:13.753Z,96829
2018-08-22T16:09:29.720Z,96824
2018-08-22T16:10:45.692Z,96823
2018-08-22T16:12:01.769Z,96818
2018-08-22T16:13:17.766Z,96819
2018-08-22T16:14:33.779Z,96822
2018-08-22T16:15:49.771Z,96819
2018-08-22T16:17:05.753Z,96822
2018-08-22T16:18:21.694Z,96822
2018-08-22T16:19:37.934Z,96821
2018-08-22T16:20:53.846Z,96818
2018-08-22T16:22:09.781Z,96821
2018-08-22T16:23:25.723Z,96821
2018-08-22T16:24:41.775Z,96820